Andres Montes

Chefscout - Santos Laguna
5 Mär 2028
Sonntag
Verarbeitung

Persönlichkeit

Anpassungsfähigkeit (16) Ehrgeiz (8) Kontroverse (10) Loyalität (6) Druck (5) Professionalität (3) Fairness (14) Temperament (8)

Profil

Trainerstil Demokratisch
Lizenz Kontinentale B
Entschlossenheit 6
Menschenführung 10
Motivation 11
Disziplin 10
Arbeitszufriedenheit
100%
Ermüdung
0%
Rolle Chefscout
Gehalt 90.2K p/W
Vertrag 14.03.2029

Leistung

Verhalten Gut
Trainingseffektivität
54%
Spielerentwicklung
35%
Verletzungsprävention
65%
Taktische Umsetzung
50%

Letzte Ereignisse

Spieler begutachtet 28T her
Nahm an einer Scouting-Besprechung teil 28T her
Spieler begutachtet 35T her
Nahm an einer Scouting-Besprechung teil 35T her
Empfahl ein Transferziel 35T her
Nahm an einer Scouting-Besprechung teil 35T her
Legte dem Vorstand ein Dossier vor 35T her
Spieler begutachtet 42T her

Aktuell beobachtet

125
Spieler Verein Status Fähigkeit Vertrauen Beobachtet Zuletzt beobachtet Letzte Stimme
Gustavo Albarracín Alavés Aktiv 114 / 117 40% 4 31.01.2028 -
Vitaly Bondarev Akron Aktiv 107 / 104 40% 1 31.01.2028 -
Gopolang Taunyane Bidvest Wits Aktiv 102 / 113 40% 1 31.01.2028 -
Agustín Medina River Plate Aktiv 118 / 115 40% 1 24.01.2028 -
Sebastián Ramírez Deportivo Pasto Aktiv 109 / 111 40% 5 20.01.2028 -
Luis Otávio Sporting Kansas City Aktiv 114 / 115 40% 4 20.01.2028 -
José Movillo O'Higgins Aktiv 79 / 90 40% 1 18.01.2028 -
Héctor Fort Real Sociedad Aktiv 143 / 144 40% 1 18.01.2028 -
Juan Camilo Córdoba Deportivo Pereira Aktiv 93 / 92 40% 1 18.01.2028 -
Nazareno Roselli Defensa y Justicia Aktiv 108 / 115 40% 2 17.01.2028 -
Chris Rigg Bournemouth Aktiv 135 / 139 40% 1 17.01.2028 -
Jorthy Mokio Ajax Aktiv 137 / 146 40% 1 17.01.2028 -
Aytor Herrera Llaneros Aktiv 87 / 87 40% 1 11.01.2028 -
Ignacio Pérez Universidad Catolica Aktiv 107 / 102 40% 1 11.01.2028 -
Sebastián Arancibia Universidad Catolica Aktiv 108 / 108 40% 2 07.01.2028 -
Daniel Banjaqui Benfica Aktiv 125 / 126 40% 9 02.01.2028 -
Duvan Giraldo Cortulua Aktiv 131 / 136 40% 1 02.01.2028 -
Dmitry Pestryakov Akron Aktiv 111 / 114 40% 1 02.01.2028 -
Marlon Balanta Real Cartagena Aktiv 87 / 103 40% 1 02.01.2028 -
Abdoulie Tamba GIF Sundsvall Aktiv 101 / 100 40% 1 02.01.2028 -
Marco Farfan Tigres Verloren 122 / 112 79% 1 01.01.2028 Befürworten
Renato Guimarães Veracruz Aktiv 127 / 132 30% 1 / 1m 27.10.2027 Mehr Infos nötig
Cristian Morales Iquique Aktiv 79 / 97 40% 2 30.08.2027 -
Jorge Obregón Deportivo Pasto Aktiv 111 / 117 40% 1 30.08.2027 -
Maximiliano Silvera Nacional Aktiv 108 / 121 40% 1 30.08.2027 -
Tomás Fernández Aldosivi Aktiv 122 / 116 40% 1 30.08.2027 -
Gabriel Moscardo Paris Saint-Germain Aktiv 132 / 136 40% 1 30.08.2027 -
Edwin Ramirez Universitario Popayan Aktiv 111 / 112 40% 2 28.08.2027 -
Sebastián Marfort Racing Aktiv 110 / 99 40% 1 28.08.2027 -
Rodrigo Pollero Deportivo Tachira Aktiv 114 / 113 40% 1 28.08.2027 -
Jesus Ferreira Seattle Sounders Aktiv 133 / 129 40% 1 27.08.2027 -
Diego Valencia Universidad Catolica Aktiv 109 / 114 40% 1 26.08.2027 -
Santiago Apa All Boys Aktiv 109 / 114 40% 1 26.08.2027 -
Joel Ezra Enyimba Aktiv 91 / 97 40% 2 22.08.2027 -
Chibueze Oputa Rangers International Aktiv 92 / 88 40% 4 19.08.2027 -
Lautaro Dufur Rentistas Aktiv 103 / 116 40% 3 19.08.2027 -
Mattia Puzone Siracusa Aktiv 96 / 106 40% 1 17.08.2027 -
Gift Udoh Ikorodu City Aktiv 83 / 97 40% 1 17.08.2027 -
Nahuel Leivas Montevideo City Torque Aktiv 105 / 114 40% 3 16.08.2027 -
Victor Ehibe Barau Aktiv 92 / 101 40% 3 16.08.2027 -
Dennis Konney US Bougouba Aktiv 84 / 79 40% 2 16.08.2027 -
Felipe Fernández Remo Stars Aktiv 103 / 107 40% 1 16.08.2027 -
José Balza Deportivo Tachira Aktiv 117 / 104 40% 2 15.08.2027 -
John Yeboah Venezia Aktiv 122 / 122 40% 1 15.08.2027 -
Godwin Oham Warri Wolves Aktiv 88 / 84 40% 2 11.08.2027 -
Kazunari Kita Real Sociedad Aktiv 107 / 106 40% 4 10.08.2027 -
Vasco Santos Oliveirense Aktiv 102 / 107 40% 3 09.08.2027 -
Jeffrey Annan Hasaacas Aktiv 89 / 95 40% 4 09.08.2027 -
Callum Tripp Milton Keynes Dons Aktiv 92 / 104 40% 4 09.08.2027 -
Jens Hjertø-Dahl Hull City Aktiv 125 / 123 40% 2 05.08.2027 -
Toni Tamarit Alverca Aktiv 119 / 123 40% 2 05.08.2027 -
Honest Ahanor Udinese Aktiv 128 / 140 40% 3 05.08.2027 -
Mbekezeli Mbokazi Chicago Fire Aktiv 122 / 133 40% 2 04.08.2027 -
Bertrand Traoré Sunderland Aktiv 132 / 138 40% 2 03.08.2027 -
David Damboama El-Kanemi Warriors Aktiv 83 / 94 40% 1 03.08.2027 -
Lorent Tolaj Plymouth Argyle Aktiv 119 / 126 40% 1 03.08.2027 -
Marezi Portsmouth Aktiv 119 / 123 40% 1 03.08.2027 -
Jack Shorrock Port Vale Aktiv 101 / 98 40% 2 01.08.2027 -
Simón Pinto Palestino Aktiv 96 / 109 40% 3 01.08.2027 -
Mattia Mannini Juve Stabia Aktiv 114 / 120 40% 1 01.08.2027 -
Alexis Fretes Libertad Aktiv 114 / 122 40% 3 31.07.2027 -
Aaron Collins Milton Keynes Dons Aktiv 123 / 111 40% 1 30.07.2027 -
Karlan Grant West Bromwich Albion Aktiv 122 / 131 40% 1 30.07.2027 -
Kelly Saravanan Salford City Aktiv 109 / 118 40% 1 30.07.2027 -
Miguel Figueiredo Benfica Aktiv 118 / 126 40% 2 28.07.2027 -
Jaydee Canvot Crystal Palace Aktiv 139 / 143 40% 2 27.07.2027 -
Maeson King Portsmouth Aktiv 107 / 125 40% 4 25.07.2027 -
Yassine Khalifi Charleroi Aktiv 105 / 117 40% 2 24.07.2027 -
Daniel Vernattus Metalist Aktiv 88 / 92 40% 5 22.07.2027 -
Percy Zungu Platinum Stars Aktiv 79 / 87 40% 1 22.07.2027 -
Ronan Kpakio West Bromwich Albion Aktiv 114 / 121 40% 4 21.07.2027 -
Aune Heggebø West Bromwich Albion Aktiv 133 / 139 40% 1 21.07.2027 -
Lucas Høgsberg RC Strasbourg Aktiv 134 / 143 40% 1 21.07.2027 -
Marco Oroná Antofagasta Aktiv 101 / 98 40% 3 20.07.2027 -
Dries Vanaken Mouscron Aktiv 123 / 135 40% 4 18.07.2027 -
Alpha Touré FC Metz Aktiv 112 / 118 40% 5 18.07.2027 -
Dale Taylor Blackpool Aktiv 118 / 117 40% 1 18.07.2027 -
Rafael Arace Caracas Aktiv 109 / 110 40% 1 17.07.2027 -
Jhojan Julio Queretaro Aktiv 126 / 125 40% 1 17.07.2027 -
Edwin Asamoah Berekum Chelsea Aktiv 90 / 87 40% 2 14.07.2027 -
Andrija Bulatović RC Lens Aktiv 125 / 139 40% 1 14.07.2027 -
Milan Roganović Partizan Aktiv 114 / 126 40% 5 13.07.2027 -
Daniel Dennis Ikorodu City Aktiv 88 / 95 40% 3 13.07.2027 -
Sam Nombe Milton Keynes Dons Aktiv 110 / 104 40% 2 10.07.2027 -
Diber Cambindo Leon Aktiv 134 / 137 40% 2 10.07.2027 -
Harry Leonard Peterborough United Aktiv 120 / 119 40% 1 10.07.2027 -
Patrick Adjei BA All Stars Aktiv 110 / 98 40% 1 09.07.2027 -
Daniel Udoh Salford City Aktiv 104 / 111 40% 2 07.07.2027 -
Brayan Alcócer Tranmere Rovers Aktiv 105 / 102 40% 1 07.07.2027 -
Cheveyo Tsawa Club Brugge Aktiv 117 / 129 40% 3 03.07.2027 -
Meschack Elia Alanyaspor Aktiv 124 / 125 40% 1 03.07.2027 -
Gianluca Pugliese Umraniyespor Aktiv 117 / 113 40% 1 03.07.2027 -
Felipe Faúndez O'Higgins Aktiv 108 / 108 40% 2 01.07.2027 -
Lee Bonis Chesterfield Aktiv 105 / 109 40% 1 30.06.2027 -
Will Evans Mansfield Town Aktiv 108 / 101 40% 1 30.06.2027 -
Davis Keillor-Dunn Wrexham Aktiv 117 / 113 40% 1 28.06.2027 -
Louis Appéré Cambridge United Aktiv 98 / 102 40% 1 28.06.2027 -
Tobías Andrada River Plate Aktiv 119 / 134 40% 3 25.06.2027 -
Henrique Silva Santa Clara Aktiv 116 / 113 40% 3 25.06.2027 -
Ronan Hale Gillingham Aktiv 110 / 119 40% 1 24.06.2027 -
George Brown Sheffield Wednesday Aktiv 96 / 105 40% 1 24.06.2027 -
Paulinho Toluca Aktiv 135 / 133 79% 1 21.06.2027 Befürworten
Domi Berlanga Vicenza Aktiv 97 / 85 40% 2 13.06.2027 -
Rui Costa Port Vale Aktiv 115 / 108 40% 1 10.06.2027 -
Eliás Montiel Pachuca Aktiv 132 / 136 40% 1 07.06.2027 -
Niall Ennis Blackpool Aktiv 115 / 121 40% 1 06.06.2027 -
Job Ochieng Real Sociedad Aktiv 104 / 106 40% 1 06.06.2027 -
Riyad Idrissi Cagliari Aktiv 127 / 133 40% 1 04.06.2027 -
Louis Leroux FC Nantes Aktiv 133 / 137 40% 1 01.06.2027 -
Axel Frugone Defensor Sporting Aktiv 123 / 114 40% 1 31.01.2027 -
Raymond Agyemang Aduana Stars Aktiv 87 / 81 40% 2 30.01.2027 -
Amine Boukamir Westerlo Aktiv 94 / 109 40% 1 30.01.2027 -
Jamie Wähling Marsaxlokk Aktiv 87 / 78 40% 1 29.01.2027 -
Roger Hinojo Espanyol Aktiv 103 / 122 40% 4 18.01.2027 -
Kyriani Sabbe Club Brugge Aktiv 126 / 124 40% 1 17.01.2027 -
Lautaro Vargas Unión de Santa Fe Aktiv 117 / 127 40% 2 15.01.2027 -
Santiago Fernández Talleres Aktiv 126 / 128 40% 1 14.01.2027 -
Joaquin Seys Club Brugge Aktiv 125 / 122 40% 1 13.01.2027 -
Ignacio Perruzzi San Lorenzo Aktiv 118 / 129 40% 1 13.01.2027 -
Ignacio Ovando Rosario Central Aktiv 100 / 105 40% 1 11.01.2027 -
Sabil Hansen Randers Aktiv 99 / 121 40% 1 09.01.2027 -
Owen Lunt Crewe Alexandra Aktiv 96 / 103 40% 1 07.01.2027 -
Saël Kumbedi VfL Wolfsburg Aktiv 140 / 143 40% 1 07.01.2027 -
Kwadwo Atiemo Wa All Stars Aktiv 92 / 80 40% 1 07.01.2027 -
Santiago Sosa Yung Valencia Aktiv 128 / 137 40% 1 02.01.2027 -